首页
METAR-TAF:

METAR-TAF

机场 :

Cornelia, 喬治亞, 美国

纬度: 34-29-59N, 经度: 083-33-24W, 海拔: 441米

当前天气观测

该预报发布于17分钟前的19:35 UTC
风速4节,风向南转南东
温度 16°C
湿度 59%
气压 1014 hPa
能見度: 16.1公里
多云层高于2600英尺

METAR: KAJR 171935Z AUTO 15004KT 10SM BKN026 16/08 A2994 RMK AO2 T01560079

时间: 14:52 (19:52 UTC)


TAF: 丢失

超过4000个机场的气象观测和天气预报(METAR&TAF报告)。

可查询的气象台以黄色和红色小点在地图上表示。

将鼠标移到小点上方,可查看气象台名称。

然后点击查看天气观测和预报。

如需切换地图:点击带黑十字的绿色按钮放大地图;点击带横线的绿色按钮缩小地图;或者点击绿色箭头查看邻近地区的地图。


METAR-TAF: